createdAt,value
2018-01-18T00:01:59.899Z,1.10
2018-01-18T00:04:28.030Z,1.10
2018-01-18T00:06:56.201Z,1.10
2018-01-18T00:09:25.105Z,1.20
2018-01-18T00:11:53.236Z,1.20
2018-01-18T00:14:21.377Z,1.20
2018-01-18T00:16:49.492Z,1.20
2018-01-18T00:19:18.384Z,1.20
2018-01-18T00:21:47.290Z,1.30
2018-01-18T00:24:15.424Z,1.20
2018-01-18T00:26:43.541Z,1.30
2018-01-18T00:29:11.672Z,1.30
2018-01-18T00:31:39.799Z,1.20
2018-01-18T00:34:07.936Z,1.30
2018-01-18T00:36:36.820Z,1.30
2018-01-18T00:39:05.756Z,1.30
2018-01-18T00:41:33.869Z,1.30
2018-01-18T00:44:02.782Z,1.30
2018-01-18T00:46:30.904Z,1.30
2018-01-18T00:48:59.060Z,1.30
2018-01-18T00:51:27.203Z,1.20
2018-01-18T00:53:55.329Z,1.20
2018-01-18T00:56:23.550Z,1.20
2018-01-18T00:58:51.667Z,1.20
2018-01-18T01:01:19.913Z,1.30
2018-01-18T01:03:48.031Z,1.20
2018-01-18T01:06:16.172Z,1.30
2018-01-18T01:08:44.299Z,1.40
2018-01-18T01:11:13.273Z,1.30
2018-01-18T01:13:41.388Z,1.30
2018-01-18T01:16:09.528Z,1.20
2018-01-18T01:18:38.416Z,1.30
2018-01-18T01:21:07.369Z,1.30
2018-01-18T01:23:35.507Z,1.20
2018-01-18T01:26:03.638Z,1.20
2018-01-18T01:28:31.764Z,1.20
2018-01-18T01:30:59.888Z,1.30
2018-01-18T01:33:28.788Z,1.20
2018-01-18T01:35:56.990Z,1.10
2018-01-18T01:38:25.119Z,1.20
2018-01-18T01:40:54.020Z,1.20
2018-01-18T01:43:23.130Z,1.20
2018-01-18T01:45:51.277Z,1.10
2018-01-18T01:48:31.342Z,1.10
2018-01-18T01:50:59.466Z,1.10
2018-01-18T01:53:27.603Z,1.10
2018-01-18T01:55:55.825Z,1.10
2018-01-18T01:58:23.963Z,1.20
2018-01-18T02:00:52.098Z,1.10
2018-01-18T02:03:20.262Z,1.10
2018-01-18T02:05:48.416Z,1.10
2018-01-18T02:08:17.306Z,1.20
2018-01-18T02:10:45.447Z,1.10
2018-01-18T02:13:13.572Z,1.10
2018-01-18T02:15:42.448Z,1.10
2018-01-18T02:18:10.617Z,1.10
2018-01-18T02:20:39.501Z,1.30
2018-01-18T02:23:07.665Z,1.20
2018-01-18T02:25:35.782Z,1.30
2018-01-18T02:28:03.913Z,1.30
2018-01-18T02:30:32.031Z,1.30
2018-01-18T02:33:00.158Z,1.30
2018-01-18T02:35:28.295Z,1.30
2018-01-18T02:37:56.489Z,1.30
2018-01-18T02:40:24.602Z,1.30
2018-01-18T02:42:52.742Z,1.40
2018-01-18T02:45:20.847Z,1.40
2018-01-18T02:47:48.977Z,1.40
2018-01-18T02:50:17.114Z,1.30
2018-01-18T02:52:45.261Z,1.40
2018-01-18T02:55:14.276Z,1.30
2018-01-18T02:57:42.404Z,1.40
2018-01-18T03:00:11.330Z,1.40
2018-01-18T03:02:39.465Z,1.40
2018-01-18T03:05:07.596Z,1.30
2018-01-18T03:07:35.721Z,1.30
2018-01-18T03:10:03.848Z,1.30
2018-01-18T03:12:33.485Z,1.20
2018-01-18T03:15:02.458Z,1.20
2018-01-18T03:17:30.549Z,1.10
2018-01-18T03:19:59.525Z,1.10
2018-01-18T03:22:28.449Z,1.10
2018-01-18T03:24:56.555Z,1.00
2018-01-18T03:27:24.720Z,1.00
2018-01-18T03:29:52.882Z,1.00
2018-01-18T03:32:21.075Z,1.00
2018-01-18T03:34:49.941Z,1.00
2018-01-18T03:37:18.078Z,0.90
2018-01-18T03:39:47.037Z,0.90
2018-01-18T03:42:15.174Z,0.90
2018-01-18T03:44:43.305Z,0.90
2018-01-18T03:47:11.438Z,0.90
2018-01-18T03:49:39.579Z,0.90
2018-01-18T03:52:07.696Z,0.90
2018-01-18T03:54:35.826Z,0.90
2018-01-18T03:57:03.977Z,0.90
2018-01-18T03:59:32.119Z,0.80
2018-01-18T04:02:00.234Z,0.80
2018-01-18T04:04:28.473Z,0.80
2018-01-18T04:06:56.590Z,0.70
2018-01-18T04:09:24.733Z,0.70
2018-01-18T04:11:52.849Z,0.70
2018-01-18T04:14:20.991Z,0.70
2018-01-18T04:16:49.100Z,0.70
2018-01-18T04:19:17.268Z,0.70
2018-01-18T04:21:45.381Z,0.70
2018-01-18T04:24:14.447Z,0.70
2018-01-18T04:26:42.588Z,0.70
2018-01-18T04:29:10.788Z,0.70
2018-01-18T04:31:38.913Z,0.70
2018-01-18T04:34:07.033Z,0.80
2018-01-18T04:36:35.155Z,0.70
2018-01-18T04:39:03.276Z,0.70
2018-01-18T04:41:31.416Z,0.70
2018-01-18T04:43:59.531Z,0.70
2018-01-18T04:46:27.670Z,0.70
2018-01-18T04:48:55.804Z,0.70
2018-01-18T04:51:23.956Z,0.70
2018-01-18T04:53:52.077Z,0.70
2018-01-18T04:56:20.206Z,0.80
2018-01-18T04:58:48.322Z,0.80
2018-01-18T05:01:16.460Z,0.90
2018-01-18T05:03:44.580Z,0.90
2018-01-18T05:06:12.700Z,0.90
2018-01-18T05:08:40.828Z,1.00
2018-01-18T05:11:08.955Z,0.90
2018-01-18T05:13:37.082Z,0.90
2018-01-18T05:16:05.202Z,0.90
2018-01-18T05:18:33.333Z,0.90
2018-01-18T05:21:02.317Z,0.90
2018-01-18T05:23:30.442Z,1.00
2018-01-18T05:25:58.573Z,1.00
2018-01-18T05:28:27.465Z,1.00
2018-01-18T05:30:55.599Z,1.00
2018-01-18T05:33:24.496Z,1.10
2018-01-18T05:35:52.646Z,1.10
2018-01-18T05:38:20.773Z,1.10
2018-01-18T05:40:48.916Z,1.10
2018-01-18T05:43:17.081Z,1.10
2018-01-18T05:45:45.201Z,1.10
2018-01-18T05:48:13.352Z,1.10
2018-01-18T05:50:42.240Z,1.10
2018-01-18T05:53:11.133Z,1.10
2018-01-18T05:55:39.249Z,1.10
2018-01-18T05:58:07.368Z,1.10
2018-01-18T06:00:35.504Z,1.10
2018-01-18T06:03:03.611Z,1.00
2018-01-18T06:05:32.515Z,1.00
2018-01-18T06:08:00.631Z,1.00
2018-01-18T06:10:29.520Z,0.90
2018-01-18T06:12:57.647Z,0.90
2018-01-18T06:15:25.761Z,1.00
2018-01-18T06:17:53.893Z,0.90
2018-01-18T06:20:22.020Z,0.90
2018-01-18T06:22:50.164Z,0.80
2018-01-18T06:25:18.310Z,0.90
2018-01-18T06:27:46.452Z,0.90
2018-01-18T06:30:14.552Z,0.80
2018-01-18T06:32:42.692Z,0.80
2018-01-18T06:35:10.814Z,0.80
2018-01-18T06:37:38.992Z,0.80
2018-01-18T06:40:07.221Z,0.90
2018-01-18T06:42:36.139Z,1.00
2018-01-18T06:45:04.275Z,0.90
2018-01-18T06:47:32.416Z,0.90
2018-01-18T06:50:00.557Z,1.00
2018-01-18T06:52:28.674Z,1.00
2018-01-18T06:54:56.809Z,1.00
2018-01-18T06:57:24.948Z,1.00
2018-01-18T06:59:53.188Z,1.00
2018-01-18T07:02:21.293Z,1.10
2018-01-18T07:04:49.434Z,1.10
2018-01-18T07:07:17.543Z,1.00
2018-01-18T07:09:45.688Z,1.00
2018-01-18T07:12:14.553Z,1.10
2018-01-18T07:14:42.697Z,1.10
2018-01-18T07:17:10.832Z,1.10
2018-01-18T07:19:38.976Z,1.20
2018-01-18T07:22:07.083Z,1.20
2018-01-18T07:24:36.358Z,1.20
2018-01-18T07:27:04.479Z,1.10
2018-01-18T07:29:32.592Z,1.10
2018-01-18T07:32:00.743Z,1.20
2018-01-18T07:34:28.876Z,1.10
2018-01-18T07:36:57.003Z,1.10
2018-01-18T07:39:25.151Z,1.10
2018-01-18T07:41:53.297Z,1.10
2018-01-18T07:44:21.422Z,1.10
2018-01-18T07:46:50.322Z,1.10
2018-01-18T07:49:19.293Z,1.10
2018-01-18T07:51:47.431Z,1.10
2018-01-18T07:54:15.549Z,1.10
2018-01-18T07:56:43.708Z,1.10
2018-01-18T07:59:11.852Z,1.10
2018-01-18T08:01:39.964Z,1.10
2018-01-18T08:04:14.434Z,1.20
2018-01-18T08:06:42.569Z,1.20
2018-01-18T08:09:10.753Z,1.20
2018-01-18T08:11:38.906Z,1.30
2018-01-18T08:14:07.831Z,1.30
2018-01-18T08:16:35.928Z,1.30
2018-01-18T08:19:04.545Z,1.40
2018-01-18T08:21:34.638Z,1.40
2018-01-18T08:24:02.763Z,1.50
2018-01-18T08:26:30.892Z,1.50
2018-01-18T08:28:59.821Z,1.60
2018-01-18T08:31:27.955Z,1.60
2018-01-18T08:33:56.851Z,1.70
2018-01-18T08:36:25.740Z,1.80
2018-01-18T08:38:54.628Z,1.80
2018-01-18T08:41:22.778Z,1.80
2018-01-18T08:43:51.656Z,1.90
2018-01-18T08:46:19.769Z,1.90
2018-01-18T08:48:47.922Z,1.90
2018-01-18T08:51:16.048Z,2.00
2018-01-18T08:53:44.957Z,1.90
2018-01-18T08:56:13.098Z,1.90
2018-01-18T08:58:41.217Z,2.00
2018-01-18T09:01:09.397Z,2.10
2018-01-18T09:03:37.526Z,2.20
2018-01-18T09:06:05.652Z,2.30
2018-01-18T09:08:35.094Z,2.40
2018-01-18T09:11:03.236Z,2.30
2018-01-18T09:13:31.357Z,2.40
2018-01-18T09:15:59.525Z,2.40
2018-01-18T09:18:27.619Z,2.40
2018-01-18T09:20:56.609Z,2.60
2018-01-18T09:23:25.516Z,2.50
2018-01-18T09:25:53.661Z,2.50
2018-01-18T09:28:21.796Z,2.60
2018-01-18T09:30:49.928Z,2.70
2018-01-18T09:33:18.856Z,2.80
2018-01-18T09:35:47.026Z,2.70
2018-01-18T09:38:15.172Z,2.80
2018-01-18T09:40:43.337Z,2.90
2018-01-18T09:43:12.229Z,3.10
2018-01-18T09:45:40.358Z,3.10
2018-01-18T09:48:08.508Z,3.20
2018-01-18T09:50:36.646Z,3.10
2018-01-18T09:53:04.779Z,3.20
2018-01-18T09:55:32.949Z,3.30
2018-01-18T09:58:01.075Z,3.20
2018-01-18T10:00:29.240Z,3.30
2018-01-18T10:02:57.368Z,3.40
2018-01-18T10:05:25.508Z,3.30
2018-01-18T10:07:53.644Z,3.40
2018-01-18T10:10:21.784Z,3.50
2018-01-18T10:12:49.940Z,3.50
2018-01-18T10:15:18.106Z,3.50
2018-01-18T10:17:46.214Z,3.50
2018-01-18T10:20:15.190Z,3.60
2018-01-18T10:22:43.328Z,3.50
2018-01-18T10:25:11.447Z,3.60
2018-01-18T10:27:39.581Z,3.60
2018-01-18T10:30:07.699Z,3.70
2018-01-18T10:32:35.897Z,3.70
2018-01-18T10:35:04.034Z,3.80
2018-01-18T10:37:32.165Z,3.80
2018-01-18T10:40:00.363Z,3.80
2018-01-18T10:42:28.498Z,3.90
2018-01-18T10:44:56.711Z,3.80
2018-01-18T10:47:24.856Z,3.90
2018-01-18T10:49:53.360Z,4.00
2018-01-18T10:52:22.196Z,4.20
2018-01-18T10:54:50.318Z,4.20
2018-01-18T10:57:18.472Z,4.20
2018-01-18T10:59:46.588Z,4.20
2018-01-18T11:02:15.485Z,4.40
2018-01-18T11:04:43.596Z,4.40
2018-01-18T11:07:11.729Z,4.40
2018-01-18T11:09:39.876Z,4.40
2018-01-18T11:12:08.001Z,4.60
2018-01-18T11:14:36.231Z,4.60
2018-01-18T11:17:04.381Z,4.70
2018-01-18T11:19:32.561Z,4.80
2018-01-18T11:22:00.706Z,4.80
2018-01-18T11:24:28.839Z,4.80
2018-01-18T11:29:56.777Z,5.00
2018-01-18T11:32:24.920Z,5.00
2018-01-18T11:34:53.068Z,5.20
2018-01-18T11:37:21.200Z,5.20
2018-01-18T11:39:49.320Z,5.30
2018-01-18T11:42:17.437Z,5.40
2018-01-18T11:44:45.580Z,5.50
2018-01-18T11:47:13.695Z,5.50
2018-01-18T11:49:42.583Z,5.50
2018-01-18T11:52:10.708Z,5.50
2018-01-18T11:54:38.822Z,5.50
2018-01-18T11:57:07.753Z,5.50
2018-01-18T11:59:35.911Z,5.50
2018-01-18T12:02:04.805Z,5.60
2018-01-18T12:04:32.913Z,5.50
2018-01-18T12:07:01.091Z,5.50
2018-01-18T12:09:30.005Z,5.60
2018-01-18T12:11:58.947Z,5.70
2018-01-18T12:14:27.102Z,5.70
2018-01-18T12:16:55.236Z,5.90
2018-01-18T12:19:24.127Z,6.90
2018-01-18T12:21:53.068Z,7.60
2018-01-18T12:24:21.179Z,7.60
2018-01-18T12:26:50.058Z,8.20
2018-01-18T12:29:18.195Z,8.20
2018-01-18T12:31:46.401Z,7.50
2018-01-18T12:34:14.531Z,7.40
2018-01-18T12:36:42.644Z,7.20
2018-01-18T12:39:10.781Z,6.80
2018-01-18T12:41:38.925Z,6.60
2018-01-18T12:44:07.057Z,6.50
2018-01-18T12:46:35.178Z,6.40
2018-01-18T12:49:03.318Z,6.40
2018-01-18T12:51:31.439Z,6.40
2018-01-18T12:53:59.565Z,6.40
2018-01-18T12:56:28.460Z,6.40
2018-01-18T12:58:56.596Z,6.40
2018-01-18T13:01:24.724Z,6.60
2018-01-18T13:03:52.831Z,6.80
2018-01-18T13:06:20.969Z,7.20
2018-01-18T13:08:49.091Z,7.20
2018-01-18T13:11:17.213Z,7.40
2018-01-18T13:13:45.380Z,7.90
2018-01-18T13:16:13.508Z,8.10
2018-01-18T13:18:41.630Z,8.00
2018-01-18T13:21:09.764Z,8.10
2018-01-18T13:23:37.874Z,8.50
2018-01-18T13:26:05.985Z,8.40
2018-01-18T13:28:34.116Z,8.60
2018-01-18T13:31:02.236Z,8.50
2018-01-18T13:33:30.361Z,8.70
2018-01-18T13:35:58.485Z,8.70
2018-01-18T13:38:26.623Z,8.70
2018-01-18T13:40:54.750Z,8.70
2018-01-18T13:43:22.872Z,8.40
2018-01-18T13:45:51.021Z,8.20
2018-01-18T13:48:19.225Z,8.20
2018-01-18T13:50:47.346Z,8.10
2018-01-18T13:53:15.457Z,8.10
2018-01-18T13:55:43.608Z,7.90
2018-01-18T13:58:11.741Z,7.80
2018-01-18T14:00:39.866Z,7.80
2018-01-18T14:03:07.984Z,7.70
2018-01-18T14:05:36.120Z,7.60
2018-01-18T14:08:04.272Z,7.50
2018-01-18T14:10:32.392Z,7.40
2018-01-18T14:13:00.504Z,7.40
2018-01-18T14:15:28.645Z,7.40
2018-01-18T14:17:56.773Z,7.30
2018-01-18T14:20:24.900Z,7.20
2018-01-18T14:22:53.040Z,7.20
2018-01-18T14:25:21.197Z,7.20
2018-01-18T14:27:50.072Z,6.80
2018-01-18T14:30:18.208Z,6.70
2018-01-18T14:32:46.322Z,6.60
2018-01-18T14:35:14.449Z,6.50
2018-01-18T14:37:42.579Z,6.50
2018-01-18T14:40:11.471Z,6.50
2018-01-18T14:42:40.404Z,6.50
2018-01-18T14:45:08.504Z,6.50
2018-01-18T14:47:36.635Z,6.50
2018-01-18T14:50:05.326Z,6.50
2018-01-18T14:52:33.459Z,6.50
2018-01-18T14:55:02.393Z,6.50
2018-01-18T14:57:30.533Z,6.40
2018-01-18T14:59:58.727Z,6.50
2018-01-18T15:02:26.833Z,6.60
2018-01-18T15:04:54.964Z,6.40
2018-01-18T15:07:23.088Z,6.40
2018-01-18T15:09:51.306Z,6.40
2018-01-18T15:12:19.470Z,6.50
2018-01-18T15:14:47.610Z,6.50
2018-01-18T15:17:15.777Z,6.50
2018-01-18T15:19:43.848Z,6.40
2018-01-18T15:22:11.982Z,6.40
2018-01-18T15:24:40.132Z,6.40
2018-01-18T15:27:08.252Z,6.50
2018-01-18T15:29:37.140Z,6.50
2018-01-18T15:32:05.287Z,6.40
2018-01-18T15:34:33.404Z,6.50
2018-01-18T15:37:02.312Z,6.40
2018-01-18T15:39:30.961Z,6.40
2018-01-18T15:41:59.087Z,6.40
2018-01-18T15:44:27.216Z,6.40
2018-01-18T15:46:56.112Z,6.30
2018-01-18T15:49:25.011Z,6.30
2018-01-18T15:51:53.938Z,6.30
2018-01-18T15:54:22.069Z,6.30
2018-01-18T15:56:51.015Z,6.30
2018-01-18T15:59:19.129Z,6.30
2018-01-18T16:01:48.012Z,6.10
2018-01-18T16:04:16.986Z,6.20
2018-01-18T16:06:45.134Z,6.10
2018-01-18T16:09:13.258Z,6.00
2018-01-18T16:11:41.372Z,6.10
2018-01-18T16:14:09.522Z,6.00
2018-01-18T16:16:37.615Z,6.00
2018-01-18T16:19:05.789Z,6.00
2018-01-18T16:21:34.000Z,6.00
2018-01-18T16:24:02.984Z,6.00
2018-01-18T16:26:31.184Z,6.00
2018-01-18T16:28:59.328Z,5.90
2018-01-18T16:31:28.284Z,5.90
2018-01-18T16:33:56.446Z,5.80
2018-01-18T16:36:24.580Z,5.80
2018-01-18T16:38:52.698Z,5.80
2018-01-18T16:41:20.865Z,5.80
2018-01-18T16:43:49.071Z,5.80
2018-01-18T16:46:17.199Z,5.70
2018-01-18T16:48:45.312Z,5.90
2018-01-18T16:51:13.479Z,5.70
2018-01-18T16:53:41.630Z,5.70
2018-01-18T16:56:09.806Z,5.70
2018-01-18T16:58:37.947Z,5.70
2018-01-18T17:01:06.051Z,5.60
2018-01-18T17:03:34.202Z,5.60
2018-01-18T17:06:02.328Z,5.50
2018-01-18T17:08:31.243Z,5.50
2018-01-18T17:10:59.460Z,5.50
2018-01-18T17:13:27.594Z,5.50
2018-01-18T17:15:55.736Z,5.40
2018-01-18T17:18:23.888Z,5.30
2018-01-18T17:20:52.794Z,5.40
2018-01-18T17:23:21.702Z,5.40
2018-01-18T17:25:49.873Z,5.40
2018-01-18T17:28:18.000Z,5.40
2018-01-18T17:30:46.117Z,5.40
2018-01-18T17:33:14.284Z,5.40
2018-01-18T17:35:42.404Z,5.30
2018-01-18T17:38:10.549Z,5.30
2018-01-18T17:40:38.689Z,5.20
2018-01-18T17:43:07.590Z,5.20
2018-01-18T17:45:35.768Z,5.20
2018-01-18T17:48:03.882Z,5.10
2018-01-18T17:50:32.023Z,5.10
2018-01-18T17:53:00.143Z,5.10
2018-01-18T17:55:28.276Z,5.20
2018-01-18T17:57:57.168Z,5.10
2018-01-18T18:00:25.373Z,5.10
2018-01-18T18:02:54.252Z,5.20
2018-01-18T18:05:22.376Z,5.20
2018-01-18T18:07:50.777Z,5.20
2018-01-18T18:10:18.906Z,5.20
2018-01-18T18:12:47.037Z,5.20
2018-01-18T18:15:15.172Z,5.30
2018-01-18T18:17:43.308Z,5.30
2018-01-18T18:20:12.183Z,5.20
2018-01-18T18:22:40.318Z,5.30
2018-01-18T18:25:08.428Z,5.30
2018-01-18T18:27:36.563Z,5.40
2018-01-18T18:30:04.677Z,5.40
2018-01-18T18:32:33.580Z,5.50
2018-01-18T18:35:02.536Z,5.40
2018-01-18T18:37:30.667Z,5.40
2018-01-18T18:39:58.861Z,5.30
2018-01-18T18:42:26.988Z,5.30
2018-01-18T18:44:55.331Z,5.20
2018-01-18T18:47:23.444Z,5.30
2018-01-18T18:49:52.480Z,5.30
2018-01-18T18:52:20.650Z,5.20
2018-01-18T18:54:48.790Z,5.20
2018-01-18T18:57:17.002Z,5.20
2018-01-18T18:59:45.215Z,5.20
2018-01-18T19:02:13.337Z,5.10
2018-01-18T19:04:41.554Z,5.00
2018-01-18T19:07:09.658Z,5.10
2018-01-18T19:09:37.860Z,4.90
2018-01-18T19:12:11.785Z,4.90
2018-01-18T19:14:42.284Z,5.10
2018-01-18T19:17:11.527Z,5.00
2018-01-18T19:19:41.662Z,4.90
2018-01-18T19:22:09.827Z,4.90
2018-01-18T19:24:38.866Z,4.90
2018-01-18T19:27:10.185Z,4.80
2018-01-18T19:29:40.852Z,4.70
2018-01-18T19:32:11.016Z,4.60
2018-01-18T19:34:41.493Z,4.70
2018-01-18T19:37:12.295Z,4.70
2018-01-18T19:39:42.036Z,4.80
2018-01-18T19:42:13.504Z,4.80
2018-01-18T19:44:43.361Z,4.80
2018-01-18T19:47:14.442Z,4.80
2018-01-18T19:49:44.696Z,4.70
2018-01-18T19:52:14.702Z,4.70
2018-01-18T19:54:44.924Z,4.60
2018-01-18T19:57:16.364Z,4.60
2018-01-18T19:59:49.105Z,4.70
2018-01-18T20:02:17.984Z,4.70
2018-01-18T20:04:47.732Z,4.60
2018-01-18T20:07:16.492Z,4.50
2018-01-18T20:09:45.924Z,4.40
2018-01-18T20:12:14.386Z,4.40
2018-01-18T20:14:43.174Z,4.30
2018-01-18T20:17:12.932Z,4.20
2018-01-18T20:19:42.029Z,4.20
2018-01-18T20:22:13.118Z,4.00
2018-01-18T20:24:42.528Z,4.00
2018-01-18T20:27:11.888Z,3.90
2018-01-18T20:29:40.332Z,3.90
2018-01-18T20:32:11.581Z,3.80
2018-01-18T20:34:42.503Z,3.70
2018-01-18T20:37:13.167Z,3.80
2018-01-18T20:39:43.021Z,3.80
2018-01-18T20:42:13.473Z,4.00
2018-01-18T20:44:42.819Z,3.90
2018-01-18T20:47:12.363Z,3.80
2018-01-18T20:49:41.899Z,3.70
2018-01-18T20:52:11.644Z,3.70
2018-01-18T20:54:40.095Z,3.70
2018-01-18T20:57:12.900Z,3.60
2018-01-18T20:59:41.820Z,3.60
2018-01-18T21:02:11.826Z,3.70
2018-01-18T21:04:41.070Z,3.70
2018-01-18T21:07:09.977Z,3.60
2018-01-18T21:09:38.151Z,3.60
2018-01-18T21:12:06.258Z,3.50
2018-01-18T21:14:34.395Z,3.50
2018-01-18T21:17:02.563Z,3.40
2018-01-18T21:19:30.740Z,3.50
2018-01-18T21:21:58.901Z,3.50
2018-01-18T21:24:27.060Z,3.40
2018-01-18T21:26:55.928Z,3.50
2018-01-18T21:29:24.052Z,3.50
2018-01-18T21:31:52.219Z,3.60
2018-01-18T21:34:20.697Z,3.60
2018-01-18T21:36:48.874Z,3.50
2018-01-18T21:39:16.980Z,3.50
2018-01-18T21:41:45.126Z,3.50
2018-01-18T21:44:13.304Z,3.40
2018-01-18T21:46:41.490Z,3.50
2018-01-18T21:49:10.406Z,3.40
2018-01-18T21:51:38.517Z,3.40
2018-01-18T21:54:06.650Z,3.50
2018-01-18T21:56:35.596Z,3.70
2018-01-18T21:59:03.773Z,3.70
2018-01-18T22:01:31.878Z,3.70
2018-01-18T22:04:00.034Z,3.70
2018-01-18T22:06:28.191Z,3.70
2018-01-18T22:08:56.332Z,3.60
2018-01-18T22:11:24.509Z,3.50
2018-01-18T22:13:52.634Z,3.50
2018-01-18T22:16:20.755Z,3.50
2018-01-18T22:18:48.882Z,3.50
2018-01-18T22:21:17.046Z,3.50
2018-01-18T22:23:45.203Z,3.50
2018-01-18T22:26:13.394Z,3.50
2018-01-18T22:28:41.580Z,3.50
2018-01-18T22:31:10.511Z,3.50
2018-01-18T22:33:38.640Z,3.50
2018-01-18T22:36:06.817Z,3.40
2018-01-18T22:38:36.049Z,3.30
2018-01-18T22:41:04.260Z,3.20
2018-01-18T22:43:32.393Z,3.20
2018-01-18T22:46:00.548Z,3.10
2018-01-18T22:48:28.691Z,3.10
2018-01-18T22:50:57.608Z,3.10
2018-01-18T22:53:25.756Z,3.00
2018-01-18T22:55:54.693Z,2.90
2018-01-18T22:58:22.857Z,2.90
2018-01-18T23:00:51.073Z,2.80
2018-01-18T23:03:19.681Z,2.70
2018-01-18T23:05:48.557Z,2.40
2018-01-18T23:08:16.723Z,2.50
2018-01-18T23:10:44.862Z,2.40
2018-01-18T23:13:13.756Z,2.30
2018-01-18T23:15:42.010Z,2.30
2018-01-18T23:18:10.339Z,2.30
2018-01-18T23:20:39.354Z,2.40
2018-01-18T23:23:07.498Z,2.40
2018-01-18T23:25:36.646Z,2.40
2018-01-18T23:28:04.759Z,2.30
2018-01-18T23:30:32.886Z,2.30
2018-01-18T23:33:01.071Z,2.30
2018-01-18T23:35:29.285Z,2.10
2018-01-18T23:37:58.189Z,2.20
2018-01-18T23:40:26.302Z,2.20
2018-01-18T23:42:54.446Z,2.20
2018-01-18T23:45:22.610Z,2.20
2018-01-18T23:47:50.729Z,2.20
2018-01-18T23:50:19.630Z,2.10
2018-01-18T23:52:47.773Z,2.10
2018-01-18T23:55:15.912Z,2.10
2018-01-18T23:57:44.032Z,2.20
